Time;durP1;ratioP1;P1;durP2;ratioP2;P2;SDS_P1;SDS_P2;PMS_P1;PMS_P2;Temp;Humidity;BMP_temperature;BMP_pressure;BME280_temperature;BME280_humidity;BME280_pressure;Samples;Min_cycle;Max_cycle;Signal;HPM_P1;HPM_P2
2023/10/02 00:01:06;;;;;;;17.55;12.27;;;;;;;14.15;66.17;95616.84;4980101;28;20096;-88
2023/10/02 00:03:39;;;;;;;20.58;12.15;;;;;;;15.88;65.72;95860.34;4996935;28;20121;-88
2023/10/02 00:06:16;;;;;;;17.23;10.73;;;;;;;15.36;65.77;95803.31;4997773;28;20115;-86
2023/10/02 00:08:51;;;;;;;20.52;11.35;;;;;;;15.85;65.35;95843.03;4979800;28;20031;-88
2023/10/02 00:11:37;;;;;;;18.08;11.77;;;;;;;15.26;64.73;95737.44;4997537;28;20116;-88
2023/10/02 00:14:19;;;;;;;20.77;10.73;;;;;;;16.11;64.62;95876.31;4979428;28;20591;-88
2023/10/02 00:16:59;;;;;;;20.80;11.05;;;;;;;15.32;64.42;95763.03;4997514;28;20030;-87
2023/10/02 00:19:39;;;;;;;17.40;11.07;;;;;;;15.94;64.97;95873.41;4997389;28;20110;-88
2023/10/02 00:25:01;;;;;;;18.52;10.27;;;;;;;15.94;64.74;95878.75;4996653;28;20137;-85
2023/10/02 00:27:29;;;;;;;18.00;9.98;;;;;;;15.64;64.39;95820.34;5009313;28;20034;-84
2023/10/02 00:29:58;;;;;;;17.02;10.57;;;;;;;15.60;64.69;95846.06;5009041;28;20035;-84
2023/10/02 00:32:33;;;;;;;22.55;10.35;;;;;;;15.89;64.38;95853.94;4993418;28;20042;-84
2023/10/02 00:35:00;;;;;;;20.63;10.50;;;;;;;15.84;64.47;95852.13;5009241;28;20509;-85
2023/10/02 00:40:22;;;;;;;16.55;9.52;;;;;;;15.78;63.90;95846.06;5009952;28;20049;-85
2023/10/02 00:42:58;;;;;;;16.77;9.65;;;;;;;15.18;63.43;95742.66;4992823;28;20101;-85
2023/10/02 00:45:30;;;;;;;19.20;9.23;;;;;;;15.49;63.71;95820.50;4992115;28;20041;-86
2023/10/02 00:50:54;;;;;;;20.92;9.30;;;;;;;16.01;63.53;95881.06;5009464;28;20578;-85
2023/10/02 00:53:28;;;;;;;21.80;8.70;;;;;;;15.97;63.43;95867.44;5009232;28;20026;-85
2023/10/02 00:55:54;;;;;;;16.17;8.15;;;;;;;15.92;62.96;95883.59;4992134;28;20030;-85
2023/10/02 00:58:19;;;;;;;19.45;8.68;;;;;;;15.52;63.40;95825.28;4991849;28;20095;-85
2023/10/02 01:00:50;;;;;;;16.42;7.32;;;;;;;15.25;62.79;95762.59;4991759;28;20034;-85
2023/10/02 01:03:16;;;;;;;20.15;7.80;;;;;;;15.90;62.49;95850.16;4991785;28;20037;-85
2023/10/02 01:05:50;;;;;;;18.40;8.45;;;;;;;15.94;62.48;95845.84;4991528;28;20030;-85
2023/10/02 01:08:23;;;;;;;16.83;8.23;;;;;;;15.40;62.14;95780.28;5008384;28;20042;-85
2023/10/02 01:11:02;;;;;;;13.73;7.72;;;;;;;15.82;62.22;95851.63;5009176;28;20037;-86
2023/10/02 01:13:34;;;;;;;17.40;7.40;;;;;;;15.19;62.34;95745.03;4992255;28;20041;-85
2023/10/02 01:16:17;;;;;;;13.55;7.53;;;;;;;15.88;62.42;95869.19;4991760;28;20041;-85
2023/10/02 01:18:44;;;;;;;19.77;8.57;;;;;;;15.91;61.80;95849.88;4977749;28;20032;-85
2023/10/02 01:21:11;;;;;;;16.42;7.63;;;;;;;15.62;61.67;95790.44;5009103;28;20081;-86
2023/10/02 01:24:07;;;;;;;16.77;7.30;;;;;;;15.43;61.73;95785.84;4991712;28;20038;-86
2023/10/02 01:26:43;;;;;;;13.18;7.78;;;;;;;14.94;61.85;95721.34;5008433;28;20034;-85
2023/10/02 01:29:12;;;;;;;14.98;8.40;;;;;;;15.70;62.18;95862.78;4992259;28;20042;-85
2023/10/02 01:31:45;;;;;;;12.80;7.13;;;;;;;15.52;62.04;95822.63;4991364;28;20053;-85
2023/10/02 01:36:56;;;;;;;12.90;7.18;;;;;;;15.74;61.79;95879.81;4998501;28;20057;-88
2023/10/02 01:39:22;;;;;;;13.95;7.15;;;;;;;15.75;61.85;95859.22;4996613;28;20022;-88
2023/10/02 01:41:52;;;;;;;15.05;7.15;;;;;;;15.12;61.90;95779.31;4979713;28;20473;-88
2023/10/02 01:44:20;;;;;;;15.45;7.22;;;;;;;14.99;62.22;95783.50;4996872;28;20088;-88
2023/10/02 01:46:49;;;;;;;20.13;8.30;;;;;;;15.25;62.06;95810.69;4979492;28;20136;-88
2023/10/02 01:49:26;;;;;;;17.60;8.18;;;;;;;15.42;61.86;95828.88;4979457;28;20034;-87
2023/10/02 01:51:55;;;;;;;15.10;8.05;;;;;;;15.29;62.12;95838.41;4996479;28;20026;-88
2023/10/02 01:54:22;;;;;;;12.38;7.57;;;;;;;14.89;62.41;95790.81;4996631;28;20034;-88
2023/10/02 01:56:49;;;;;;;14.82;7.95;;;;;;;15.25;62.59;95858.78;4988608;28;20037;-85
2023/10/02 01:59:19;;;;;;;12.65;7.32;;;;;;;15.50;62.25;95880.91;4990213;28;20381;-85
2023/10/02 02:01:55;;;;;;;16.77;8.45;;;;;;;15.03;62.48;95815.75;4990926;28;20045;-83
2023/10/02 02:04:28;;;;;;;12.82;7.90;;;;;;;14.47;62.29;95728.31;4989837;28;20030;-85
2023/10/02 02:06:59;;;;;;;11.60;7.57;;;;;;;15.35;62.23;95884.56;4989952;28;20037;-84
2023/10/02 02:09:30;;;;;;;11.63;7.63;;;;;;;14.24;62.71;95705.84;5007296;28;20053;-85
2023/10/02 02:12:05;;;;;;;16.63;7.45;;;;;;;15.25;62.68;95880.16;4989614;28;20105;-84
2023/10/02 02:14:32;;;;;;;17.60;7.18;;;;;;;15.16;62.22;95879.19;4989346;28;20097;-84
2023/10/02 02:16:58;;;;;;;15.90;7.90;;;;;;;15.23;62.49;95865.50;4989733;28;20050;-84
2023/10/02 02:19:24;;;;;;;13.85;6.93;;;;;;;14.41;62.35;95756.13;5006803;28;20019;-84
2023/10/02 02:21:51;;;;;;;10.73;6.57;;;;;;;14.42;62.67;95780.94;4989138;28;20041;-84
2023/10/02 02:24:17;;;;;;;14.35;7.55;;;;;;;13.94;62.69;95722.16;4990193;28;20037;-85
2023/10/02 02:26:43;;;;;;;13.77;7.30;;;;;;;14.99;62.32;95879.66;4990456;28;20046;-85
2023/10/02 02:29:26;;;;;;;15.73;6.72;;;;;;;14.99;62.61;95890.31;4990812;28;20026;-84
2023/10/02 02:31:55;;;;;;;15.95;7.50;;;;;;;14.21;62.49;95748.28;4990204;28;20041;-85
2023/10/02 02:34:23;;;;;;;14.50;7.30;;;;;;;14.87;61.67;95879.25;4989197;28;20066;-85
2023/10/02 02:36:50;;;;;;;17.13;7.18;;;;;;;14.90;62.23;95884.00;5007042;28;20049;-84
2023/10/02 02:39:20;;;;;;;14.70;6.50;;;;;;;14.33;61.37;95814.63;5007230;28;20019;-84
2023/10/02 02:42:10;;;;;;;13.95;7.25;;;;;;;14.05;61.75;95760.19;5008496;28;20061;-84
2023/10/02 02:44:39;;;;;;;10.00;6.35;;;;;;;14.87;61.06;95903.28;4989862;28;20062;-84
2023/10/02 02:47:07;;;;;;;11.05;6.25;;;;;;;14.88;61.09;95893.38;5007367;28;20030;-85
2023/10/02 02:49:48;;;;;;;15.18;6.82;;;;;;;14.33;61.11;95822.63;4991245;28;20034;-86
2023/10/02 02:52:19;;;;;;;12.07;6.38;;;;;;;14.80;60.63;95886.00;5007060;28;20038;-85
2023/10/02 02:54:47;;;;;;;14.90;6.55;;;;;;;14.73;60.83;95891.66;4991021;28;20045;-85
2023/10/02 02:57:25;;;;;;;12.73;6.40;;;;;;;14.05;60.63;95810.84;4991611;28;20034;-86
2023/10/02 03:02:52;;;;;;;11.05;6.03;;;;;;;13.95;60.19;95785.09;5009139;28;20511;-85
2023/10/02 03:05:21;;;;;;;15.77;6.28;;;;;;;14.03;60.18;95811.16;4990729;28;20037;-84
2023/10/02 03:07:54;;;;;;;14.32;6.32;;;;;;;13.98;59.65;95792.50;4972662;28;20039;-85
2023/10/02 03:10:23;;;;;;;11.23;6.13;;;;;;;14.35;59.36;95866.63;4989177;28;20081;-85
2023/10/02 03:12:50;;;;;;;12.93;5.63;;;;;;;14.34;59.45;95882.94;4990208;28;20549;-85
2023/10/02 03:15:37;;;;;;;12.15;5.88;;;;;;;14.39;59.05;95864.22;4989012;28;20481;-84
2023/10/02 03:18:22;;;;;;;12.15;5.63;;;;;;;13.66;58.67;95747.72;5006592;28;20088;-84
2023/10/02 03:20:51;;;;;;;10.07;5.22;;;;;;;14.09;58.63;95806.56;4989842;28;20050;-84
2023/10/02 03:23:18;;;;;;;11.52;5.38;;;;;;;14.38;58.52;95862.59;5005559;28;20041;-85
2023/10/02 03:25:47;;;;;;;13.00;6.25;;;;;;;14.50;58.55;95863.03;4989408;28;20034;-84
2023/10/02 03:28:27;;;;;;;14.98;6.55;;;;;;;14.12;58.64;95804.13;5007294;28;20057;-84
2023/10/02 03:30:57;;;;;;;12.30;5.45;;;;;;;14.65;58.75;95894.94;4989445;28;20106;-84
2023/10/02 03:33:26;;;;;;;10.85;5.28;;;;;;;14.34;58.30;95854.38;4992190;28;20046;-84
2023/10/02 03:36:10;;;;;;;12.25;5.20;;;;;;;13.98;58.44;95826.38;5009571;28;20509;-84
2023/10/02 03:38:43;;;;;;;11.73;5.35;;;;;;;14.13;58.70;95853.72;5010492;28;20015;-84
2023/10/02 03:41:13;;;;;;;14.50;5.95;;;;;;;14.23;58.97;95859.00;4992633;28;20034;-84
2023/10/02 03:43:46;;;;;;;11.65;6.28;;;;;;;14.54;58.65;95888.09;4992485;28;20034;-84
2023/10/02 03:46:22;;;;;;;11.68;6.53;;;;;;;14.30;58.08;95869.34;4977944;28;20030;-85
2023/10/02 03:48:58;;;;;;;15.63;5.72;;;;;;;14.50;58.00;95889.72;4992227;28;20062;-85
2023/10/02 03:51:36;;;;;;;12.75;5.70;;;;;;;13.97;57.89;95811.44;5009794;28;20038;-85
2023/10/02 03:54:18;;;;;;;11.63;5.03;;;;;;;14.47;58.08;95888.44;5010473;28;20102;-84
2023/10/02 03:56:50;;;;;;;13.50;5.95;;;;;;;14.29;57.51;95855.19;5011242;28;20037;-87
2023/10/02 03:59:26;;;;;;;17.05;5.57;;;;;;;14.22;57.45;95869.94;5000517;28;20040;-88
2023/10/02 04:04:40;;;;;;;13.45;5.15;;;;;;;13.52;57.14;95766.19;5014584;28;20110;-87
2023/10/02 04:07:08;;;;;;;13.90;5.95;;;;;;;13.96;57.15;95833.88;5016524;28;20045;-87
2023/10/02 04:09:36;;;;;;;14.82;5.18;;;;;;;13.88;57.04;95813.94;5004838;28;20150;-88
2023/10/02 04:12:04;;;;;;;17.80;5.95;;;;;;;14.36;56.58;95870.88;5010325;28;20029;-87
2023/10/02 04:14:33;;;;;;;13.85;5.13;;;;;;;13.98;56.21;95810.38;5001301;28;20092;-87
2023/10/02 04:19:49;;;;;;;10.82;5.35;;;;;;;14.52;55.80;95917.75;5023654;28;20033;-85
2023/10/02 04:22:22;;;;;;;16.08;5.40;;;;;;;13.84;56.22;95827.03;5014026;28;20038;-87
2023/10/02 04:25:03;;;;;;;17.23;5.75;;;;;;;13.31;56.25;95751.44;5005930;28;20069;-86
2023/10/02 04:32:42;;;;;;;15.43;5.93;;;;;;;13.80;56.13;95833.19;4971067;28;20047;-86
2023/10/02 04:35:57;;;;;;;17.73;5.95;;;;;;;12.08;56.01;95570.56;4952474;28;20106;-85
2023/10/02 04:37:59;;;;;;;17.55;5.63;;;;;;;14.27;56.08;95932.03;4932340;28;20070;-85
2023/10/02 04:43:23;;;;;;;13.77;5.38;;;;;;;14.18;55.79;95911.59;4939913;28;20206;-85
2023/10/02 04:46:08;;;;;;;11.52;5.60;;;;;;;14.15;55.89;95920.94;4954340;28;20043;-85
2023/10/02 04:48:46;;;;;;;19.98;5.38;;;;;;;13.93;55.90;95914.41;4963862;28;20035;-85
2023/10/02 04:51:12;;;;;;;19.60;5.93;;;;;;;13.69;56.43;95869.78;4985769;28;20043;-86
2023/10/02 04:53:42;;;;;;;12.45;5.40;;;;;;;14.00;56.46;95929.03;4970455;28;20048;-86
2023/10/02 04:56:46;;;;;;;16.05;5.30;;;;;;;13.45;56.58;95821.66;4965314;28;20027;-86
2023/10/02 04:59:03;;;;;;;9.40;4.88;;;;;;;14.22;56.02;95948.09;4973277;28;20107;-86
2023/10/02 05:01:29;;;;;;;13.80;6.15;;;;;;;14.04;56.54;95950.59;4966955;28;20081;-87
2023/10/02 05:04:04;;;;;;;18.23;5.78;;;;;;;14.02;56.44;95926.09;4971415;28;20783;-86
2023/10/02 05:06:44;;;;;;;14.00;4.70;;;;;;;13.80;56.33;95915.84;4969998;28;20061;-86
2023/10/02 05:11:55;;;;;;;14.02;5.05;;;;;;;11.07;56.32;95507.91;4973756;28;20101;-87
2023/10/02 05:14:50;;;;;;;12.73;5.25;;;;;;;10.64;56.20;95398.66;4971222;28;20030;-87
2023/10/02 05:17:17;;;;;;;11.43;4.90;;;;;;;12.93;55.83;95776.91;4976902;28;20702;-85
2023/10/02 05:20:02;;;;;;;14.02;5.18;;;;;;;13.47;55.23;95829.41;4998996;28;20042;-87
2023/10/02 05:22:30;;;;;;;17.55;5.18;;;;;;;14.46;54.82;95953.56;4983671;28;20553;-90
2023/10/02 05:24:59;;;;;;;14.63;5.78;;;;;;;13.79;55.17;95867.06;4930174;23;20051;-80
2023/10/02 05:27:31;;;;;;;10.98;4.70;;;;;;;14.32;55.19;95955.25;4900930;28;20964;-80
2023/10/02 05:29:58;;;;;;;18.25;5.63;;;;;;;14.12;55.25;95934.81;4904909;28;21081;-80
2023/10/02 05:32:29;;;;;;;13.15;4.45;;;;;;;14.32;54.68;95965.91;4916493;28;20102;-80
2023/10/02 05:37:40;;;;;;;11.05;4.43;;;;;;;14.25;54.63;95950.22;4919316;28;20050;-79
2023/10/02 05:48:15;;;;;;;15.43;5.70;;;;;;;14.31;55.20;95969.66;4935327;28;20418;-81
2023/10/02 05:50:47;;;;;;;16.05;5.38;;;;;;;13.84;54.78;95938.19;4954744;28;20573;-81
2023/10/02 05:53:34;;;;;;;11.20;4.00;;;;;;;14.00;55.65;95958.38;4935060;28;20735;-82
2023/10/02 05:58:36;;;;;;;13.63;5.15;;;;;;;14.10;55.46;95973.53;4953326;28;20376;-80
2023/10/02 06:01:04;;;;;;;15.02;4.93;;;;;;;14.15;55.62;95971.63;4972700;28;20050;-80
2023/10/02 06:03:34;;;;;;;8.70;4.65;;;;;;;14.21;55.02;95997.19;4949510;28;20369;-81
2023/10/02 06:06:21;;;;;;;12.13;4.95;;;;;;;14.05;55.63;95981.53;4954558;28;20517;-78
2023/10/02 06:08:48;;;;;;;12.13;4.85;;;;;;;14.07;55.12;95990.06;4954977;28;20037;-78
2023/10/02 06:11:34;;;;;;;13.27;4.82;;;;;;;13.88;54.87;95958.69;4948866;28;20042;-80
2023/10/02 06:14:10;;;;;;;11.98;4.25;;;;;;;14.06;54.92;95978.59;4960356;28;20102;-79
2023/10/02 06:16:40;;;;;;;10.55;4.60;;;;;;;13.75;55.24;95931.84;4953357;28;20042;-78
2023/10/02 06:19:07;;;;;;;13.05;5.28;;;;;;;13.82;55.14;95935.00;4947057;28;20030;-78
2023/10/02 06:21:47;;;;;;;13.45;4.30;;;;;;;14.16;55.25;95983.09;4947143;28;20042;-78
2023/10/02 06:24:13;;;;;;;19.40;5.40;;;;;;;14.17;54.91;95992.69;4948606;28;20090;-77
2023/10/02 06:26:55;;;;;;;14.52;4.50;;;;;;;14.14;55.03;95986.03;4946603;28;20039;-77
2023/10/02 06:29:24;;;;;;;21.63;5.68;;;;;;;14.17;55.38;95990.03;4954787;28;20035;-77
2023/10/02 06:32:11;;;;;;;13.18;4.85;;;;;;;14.10;54.84;95981.53;4955699;28;20034;-78
2023/10/02 06:34:39;;;;;;;10.65;4.72;;;;;;;14.36;54.97;95995.50;4953341;28;20434;-77
2023/10/02 06:37:07;;;;;;;13.27;4.82;;;;;;;14.42;54.44;96005.88;4948501;28;20034;-78
2023/10/02 06:40:13;;;;;;;17.50;4.88;;;;;;;14.30;54.49;95978.72;4953390;28;20031;-77
2023/10/02 06:42:49;;;;;;;13.93;6.05;;;;;;;14.54;54.27;96009.03;4954218;28;20054;-77
2023/10/02 06:45:20;;;;;;;12.52;5.22;;;;;;;14.46;53.54;95969.56;4953433;28;20038;-78
2023/10/02 06:47:48;;;;;;;11.95;4.78;;;;;;;14.65;53.70;95999.84;4940337;28;20038;-81
2023/10/02 06:50:35;;;;;;;9.45;4.15;;;;;;;14.73;53.68;96009.13;4958381;28;20046;-80
2023/10/02 06:53:01;;;;;;;14.18;4.57;;;;;;;14.51;53.47;96003.44;4950808;28;20466;-80
2023/10/02 06:55:29;;;;;;;19.15;4.53;;;;;;;14.66;53.50;96014.78;4953635;28;20042;-79
2023/10/02 06:57:56;;;;;;;11.88;4.57;;;;;;;14.66;53.57;96020.13;4960074;28;20041;-80
2023/10/02 07:00:23;;;;;;;10.93;3.78;;;;;;;14.37;53.53;95997.88;4958314;28;20107;-80
2023/10/02 07:02:58;;;;;;;15.90;4.70;;;;;;;14.05;54.34;95965.53;4954171;28;20135;-80
2023/10/02 07:05:27;;;;;;;11.38;4.60;;;;;;;13.87;54.18;95913.66;4954781;28;20038;-80
2023/10/02 07:08:01;;;;;;;13.07;4.85;;;;;;;13.90;54.46;95927.22;4956694;28;20035;-80
2023/10/02 07:10:29;;;;;;;10.38;4.88;;;;;;;14.62;54.37;96039.66;4978515;28;20046;-78
2023/10/02 07:12:55;;;;;;;7.97;4.40;;;;;;;14.46;54.56;95987.47;4949680;28;20042;-81
2023/10/02 07:15:26;;;;;;;14.07;5.50;;;;;;;14.65;54.48;96015.88;4959027;28;20130;-82
2023/10/02 07:18:00;;;;;;;11.57;4.90;;;;;;;14.38;54.07;95972.84;4952776;28;20038;-83
2023/10/02 07:20:42;;;;;;;12.30;4.15;;;;;;;14.36;54.24;95947.47;4957295;28;20043;-81
2023/10/02 07:23:13;;;;;;;14.57;5.20;;;;;;;14.80;53.83;96024.84;4966342;28;20084;-82
2023/10/02 07:25:41;;;;;;;12.03;4.13;;;;;;;14.85;53.99;96022.13;4995583;28;20030;-81
2023/10/02 07:28:08;;;;;;;13.75;4.70;;;;;;;14.76;53.84;96000.56;4999227;28;20110;-81
2023/10/02 07:30:33;;;;;;;10.80;4.43;;;;;;;14.86;53.83;96032.53;5000823;28;20030;-83
2023/10/02 07:33:04;;;;;;;21.35;4.63;;;;;;;14.93;54.08;96021.53;4978806;28;20140;-81
2023/10/02 07:35:30;;;;;;;7.68;4.18;;;;;;;14.87;53.34;95991.41;5001065;28;20037;-81
2023/10/02 07:37:58;;;;;;;13.15;4.40;;;;;;;14.88;53.76;96034.91;4991958;28;20026;-84
2023/10/02 07:40:49;;;;;;;14.15;4.30;;;;;;;14.66;53.33;95961.41;4988793;28;20060;-81
2023/10/02 07:43:18;;;;;;;15.90;4.35;;;;;;;15.06;53.25;96027.03;4987234;28;20040;-80
2023/10/02 07:46:01;;;;;;;12.25;5.43;;;;;;;15.06;53.36;96004.84;4977937;28;20026;-80
2023/10/02 07:48:30;;;;;;;13.43;4.93;;;;;;;15.05;53.08;95989.91;4966099;28;20053;-82
2023/10/02 07:50:58;;;;;;;16.70;4.10;;;;;;;15.20;53.00;95999.63;4957975;28;20132;-81
2023/10/02 07:53:38;;;;;;;16.02;4.97;;;;;;;14.64;52.63;95915.53;4987631;28;20121;-82
2023/10/02 07:56:14;;;;;;;12.73;4.35;;;;;;;15.23;52.80;96021.25;4976011;28;20042;-83
2023/10/02 07:58:41;;;;;;;11.95;4.30;;;;;;;15.45;53.13;96036.81;4979774;28;20062;-83
2023/10/02 08:01:13;;;;;;;14.65;4.28;;;;;;;15.49;52.88;96029.00;4991552;28;20066;-81
2023/10/02 08:03:43;;;;;;;9.52;4.90;;;;;;;15.50;52.73;96007.34;5004007;28;20124;-81
2023/10/02 08:06:21;;;;;;;15.27;4.60;;;;;;;15.61;52.29;96026.78;4977650;28;20045;-82
2023/10/02 08:09:24;;;;;;;14.13;4.63;;;;;;;15.63;52.09;96009.38;4998177;28;20069;-82
2023/10/02 08:11:33;;;;;;;10.25;3.85;;;;;;;15.83;51.97;95997.66;4995629;28;20762;-82
2023/10/02 08:14:01;;;;;;;9.45;4.40;;;;;;;15.80;51.45;96004.34;5000449;28;20057;-82
2023/10/02 08:16:27;;;;;;;14.77;4.43;;;;;;;15.33;51.61;95938.28;4977381;28;20242;-84
2023/10/02 08:18:59;;;;;;;15.70;5.32;;;;;;;15.76;51.79;95991.84;5006779;28;20030;-82
2023/10/02 08:21:48;;;;;;;10.55;4.78;;;;;;;16.08;51.30;96045.50;4977185;28;20045;-82
2023/10/02 08:24:13;;;;;;;18.25;5.72;;;;;;;15.83;51.27;96003.00;4996284;28;20437;-81
2023/10/02 08:26:43;;;;;;;18.90;5.28;;;;;;;15.97;51.08;96013.78;4986857;28;20040;-82
2023/10/02 08:29:18;;;;;;;10.70;4.90;;;;;;;15.84;50.59;95988.53;4987031;28;20026;-80
2023/10/02 08:31:47;;;;;;;15.80;4.85;;;;;;;16.06;50.55;96025.44;4989451;28;20030;-79
2023/10/02 08:34:19;;;;;;;10.75;4.43;;;;;;;15.78;50.51;95992.38;4998665;28;20034;-79
2023/10/02 08:36:48;;;;;;;12.73;4.85;;;;;;;16.15;50.69;96015.69;4993358;28;21563;-81
2023/10/02 08:39:21;;;;;;;13.60;5.70;;;;;;;15.95;50.85;95992.66;4990186;28;20059;-77
2023/10/02 08:41:50;;;;;;;12.88;4.45;;;;;;;16.11;50.76;96020.81;4983000;28;20038;-83
2023/10/02 08:44:17;;;;;;;14.70;5.13;;;;;;;16.26;50.82;96003.75;4977196;28;20535;-83
2023/10/02 08:46:43;;;;;;;13.52;4.72;;;;;;;16.20;50.08;96002.25;4980297;28;20030;-80
2023/10/02 08:49:18;;;;;;;11.00;4.47;;;;;;;15.43;49.34;95876.72;4990164;28;20112;-80
2023/10/02 08:51:49;;;;;;;18.83;4.60;;;;;;;16.24;48.70;96027.38;4988028;28;20086;-81
2023/10/02 08:54:15;;;;;;;12.48;5.30;;;;;;;16.36;48.69;96014.34;4981621;28;20038;-82
2023/10/02 08:56:44;;;;;;;13.32;4.70;;;;;;;16.17;48.56;95992.13;4986317;28;20038;-82
2023/10/02 08:59:35;;;;;;;23.63;5.20;;;;;;;16.48;48.58;96029.94;4987716;28;20038;-81
2023/10/02 09:02:14;;;;;;;17.02;4.75;;;;;;;16.39;48.06;95994.22;4995335;28;20057;-81
2023/10/02 09:05:06;;;;;;;22.98;5.18;;;;;;;16.41;47.64;95967.94;4984208;28;20128;-80
2023/10/02 09:10:25;;;;;;;23.23;5.13;;;;;;;16.72;46.65;96009.25;4999701;28;20129;-81
2023/10/02 09:13:10;;;;;;;16.70;5.30;;;;;;;16.85;46.89;96005.06;4967507;28;20139;-80
2023/10/02 09:15:37;;;;;;;12.13;4.63;;;;;;;16.78;46.08;95993.94;4985087;28;20034;-81
2023/10/02 09:18:20;;;;;;;21.45;5.68;;;;;;;16.65;46.25;95974.03;4987852;28;20025;-81
2023/10/02 09:21:13;;;;;;;13.02;4.45;;;;;;;16.78;45.09;95994.69;4978371;28;20030;-81
2023/10/02 09:23:51;;;;;;;9.88;4.53;;;;;;;16.99;44.84;95992.50;4988883;28;20188;-82
2023/10/02 09:26:17;;;;;;;18.83;5.10;;;;;;;17.03;44.88;95993.50;4994371;28;20039;-82
2023/10/02 09:28:58;;;;;;;14.18;5.10;;;;;;;17.08;45.34;95989.94;4990128;28;20025;-82
2023/10/02 09:31:27;;;;;;;14.38;4.57;;;;;;;17.07;45.25;95959.66;4996706;28;20022;-84
2023/10/02 09:33:54;;;;;;;13.52;4.95;;;;;;;17.40;44.63;95999.81;4988086;23;20054;-82
2023/10/02 09:36:35;;;;;;;12.10;5.32;;;;;;;17.05;43.89;95971.75;4958861;28;20047;-82
2023/10/02 09:39:31;;;;;;;14.45;4.55;;;;;;;17.39;44.24;96001.72;4978083;28;20072;-81
2023/10/02 09:41:53;;;;;;;13.02;4.90;;;;;;;17.42;43.75;95997.63;4980944;28;20046;-82
2023/10/02 09:44:27;;;;;;;15.57;5.30;;;;;;;17.28;43.10;95970.81;4965740;28;20129;-82
2023/10/02 09:46:54;;;;;;;11.63;5.05;;;;;;;17.42;43.15;95976.19;4962432;28;20037;-83
2023/10/02 09:49:36;;;;;;;13.05;5.05;;;;;;;17.86;42.57;95987.13;4964827;28;20038;-83
2023/10/02 09:52:16;;;;;;;15.70;5.65;;;;;;;18.18;41.13;95980.81;4980905;28;20038;-83
2023/10/02 09:55:07;;;;;;;13.23;5.18;;;;;;;18.95;40.97;95998.69;4974761;28;20034;-83
2023/10/02 09:57:49;;;;;;;13.75;5.53;;;;;;;19.85;39.51;95982.06;4984642;28;20331;-84
2023/10/02 10:00:34;;;;;;;12.43;5.30;;;;;;;19.95;37.67;95908.31;4980402;28;20640;-83
2023/10/02 10:03:24;;;;;;;14.95;5.55;;;;;;;21.24;36.95;95991.81;4979981;28;20034;-83
2023/10/02 10:06:16;;;;;;;15.55;5.45;;;;;;;21.78;35.22;95989.41;4973142;28;20034;-83
2023/10/02 10:11:44;;;;;;;13.30;6.03;;;;;;;22.57;33.23;95992.13;4979556;28;20054;-84
2023/10/02 10:14:37;;;;;;;15.30;5.53;;;;;;;22.50;33.44;95997.28;4973019;28;20038;-82
2023/10/02 10:20:19;;;;;;;12.52;4.85;;;;;;;23.40;32.20;95983.13;4971571;28;20061;-80
2023/10/02 10:22:50;;;;;;;;;;;;;;;23.10;32.00;95977.06;4984846;28;20559;-81
2023/10/02 10:25:22;;;;;;;11.38;4.90;;;;;;;22.33;33.15;95970.38;4976800;28;20163;-82
2023/10/02 10:27:54;;;;;;;15.55;5.20;;;;;;;22.62;33.06;95973.00;4960521;28;20042;-81
2023/10/02 10:30:27;;;;;;;15.10;5.88;;;;;;;23.29;32.17;95952.19;4914992;28;20057;-81
2023/10/02 10:33:13;;;;;;;15.93;5.63;;;;;;;23.42;32.16;95954.56;4932842;28;20390;-83
2023/10/02 10:35:48;;;;;;;12.05;5.70;;;;;;;23.40;32.07;95950.63;4963925;23;20639;-82
2023/10/02 10:38:28;;;;;;;15.35;5.72;;;;;;;23.31;32.06;95942.59;4964028;28;20053;-80
2023/10/02 10:41:06;;;;;;;13.80;5.50;;;;;;;23.04;32.69;95929.69;4982159;28;20080;-80
2023/10/02 10:46:31;;;;;;;11.80;5.18;;;;;;;22.70;33.03;95930.78;4976636;28;20037;-80
2023/10/02 10:49:08;;;;;;;23.52;6.00;;;;;;;23.67;31.97;95938.38;4994265;28;20041;-81
2023/10/02 10:51:40;;;;;;;14.70;5.38;;;;;;;24.04;31.24;95907.41;4994179;28;20040;-80
2023/10/02 10:57:22;;;;;;;13.32;5.32;;;;;;;24.48;30.71;95940.13;5009707;28;20065;-81
2023/10/02 11:03:08;;;;;;;13.02;5.80;;;;;;;24.87;30.62;95925.69;5004041;28;20101;-82
2023/10/02 11:05:37;;;;;;;10.88;5.38;;;;;;;24.89;29.67;95912.59;5016875;28;20105;-80
2023/10/02 11:08:25;;;;;;;12.75;6.68;;;;;;;25.11;29.84;95919.38;5000223;28;20189;-80
2023/10/02 11:11:06;;;;;;;11.05;5.50;;;;;;;24.23;30.31;95875.13;4990339;28;20571;-81
2023/10/02 11:13:50;;;;;;;13.15;5.15;;;;;;;24.49;30.54;95911.84;4998954;28;20030;-81
2023/10/02 11:16:34;;;;;;;15.82;5.68;;;;;;;24.51;30.44;95904.94;4986863;28;20102;-78
2023/10/02 11:19:10;;;;;;;13.75;5.10;;;;;;;24.92;30.42;95906.50;4992180;28;20076;-82
2023/10/02 11:21:45;;;;;;;13.65;6.13;;;;;;;24.63;29.84;95892.50;5005609;28;20038;-83
2023/10/02 11:24:23;;;;;;;8.43;4.65;;;;;;;24.76;29.65;95869.59;4957708;28;20039;-82
2023/10/02 11:26:53;;;;;;;17.23;5.85;;;;;;;24.04;30.81;95850.53;4965297;28;20046;-82
2023/10/02 11:29:22;;;;;;;13.90;5.55;;;;;;;24.49;30.75;95879.31;4994555;28;20103;-83
2023/10/02 11:32:22;;;;;;;11.93;5.03;;;;;;;24.73;30.12;95854.00;4997834;28;20072;-80
2023/10/02 11:34:59;;;;;;;10.02;4.80;;;;;;;24.72;30.71;95877.63;4989913;28;20103;-83
2023/10/02 11:37:26;;;;;;;9.15;5.18;;;;;;;24.80;30.50;95870.47;4999136;28;20393;-83
2023/10/02 11:39:55;;;;;;;9.43;5.07;;;;;;;24.77;30.61;95899.09;4989668;28;20066;-82
2023/10/02 11:42:22;;;;;;;14.30;5.07;;;;;;;24.67;30.69;95868.97;4999020;28;20033;-80
2023/10/02 11:44:47;;;;;;;12.23;5.20;;;;;;;24.64;30.86;95885.94;4994531;28;20076;-82
2023/10/02 11:47:14;;;;;;;14.52;5.45;;;;;;;24.82;31.14;95866.28;4987781;28;20045;-83
2023/10/02 11:49:40;;;;;;;12.98;4.93;;;;;;;24.84;30.92;95893.06;5011080;28;20034;-81
2023/10/02 11:52:06;;;;;;;12.23;5.30;;;;;;;24.33;31.40;95903.69;4989138;28;20031;-82
2023/10/02 11:54:36;;;;;;;15.00;5.38;;;;;;;24.67;31.22;95893.38;4990655;28;20036;-83
2023/10/02 11:57:08;;;;;;;13.15;4.90;;;;;;;24.21;31.74;95880.09;4999723;28;20088;-82
2023/10/02 11:59:37;;;;;;;13.68;5.57;;;;;;;23.49;32.43;95878.25;5006587;28;20034;-82
2023/10/02 12:02:04;;;;;;;10.07;5.30;;;;;;;23.63;32.82;95884.13;4999319;28;20078;-83
2023/10/02 12:04:30;;;;;;;13.20;5.85;;;;;;;23.53;32.56;95856.69;5001698;28;20038;-83
2023/10/02 12:06:57;;;;;;;11.55;6.38;;;;;;;23.67;32.61;95889.63;4977538;28;20034;-84
2023/10/02 12:09:23;;;;;;;12.23;5.43;;;;;;;23.21;32.87;95834.78;4993538;28;20675;-83
2023/10/02 12:11:48;;;;;;;13.77;5.55;;;;;;;23.70;32.82;95859.19;4972819;28;20765;-84
2023/10/02 12:14:14;;;;;;;21.38;5.57;;;;;;;23.40;32.89;95875.63;4962678;28;20038;-81
2023/10/02 12:16:41;;;;;;;16.33;5.68;;;;;;;23.24;33.42;95847.66;4974994;28;20533;-82
2023/10/02 12:19:10;;;;;;;11.95;5.90;;;;;;;23.35;33.23;95856.09;4993828;28;20121;-82
2023/10/02 12:21:36;;;;;;;15.90;7.07;;;;;;;23.52;32.56;95874.06;4961596;28;20144;-82
2023/10/02 12:24:07;;;;;;;14.35;6.75;;;;;;;23.06;33.35;95851.69;4990186;28;20730;-82
2023/10/02 12:26:33;;;;;;;10.90;6.35;;;;;;;23.06;33.20;95832.75;4982881;28;20070;-81
2023/10/02 12:29:00;;;;;;;14.50;6.40;;;;;;;23.39;33.13;95851.59;4968239;28;20159;-82
2023/10/02 12:31:26;;;;;;;13.20;6.00;;;;;;;23.15;33.10;95813.72;4980781;28;20532;-81
2023/10/02 12:33:52;;;;;;;14.13;5.40;;;;;;;23.56;32.50;95816.22;4970717;28;20074;-82
2023/10/02 12:36:22;;;;;;;14.10;5.53;;;;;;;24.36;31.82;95866.94;4955228;28;20051;-82
2023/10/02 12:38:52;;;;;;;10.20;4.97;;;;;;;24.05;31.62;95835.06;4956651;28;20096;-83
2023/10/02 12:41:22;;;;;;;8.45;4.90;;;;;;;24.08;32.11;95862.25;4951755;28;20042;-82
2023/10/02 12:43:56;;;;;;;11.25;5.30;;;;;;;23.43;32.70;95822.72;4956542;28;20109;-83
2023/10/02 12:46:24;;;;;;;18.13;6.60;;;;;;;23.50;33.29;95869.00;4959728;28;20053;-82
2023/10/02 12:48:50;;;;;;;15.23;6.03;;;;;;;23.26;33.40;95831.88;4939178;28;20035;-82
2023/10/02 12:51:17;;;;;;;13.48;6.53;;;;;;;23.73;32.68;95842.22;4959793;28;20474;-82
2023/10/02 12:53:43;;;;;;;11.82;5.80;;;;;;;24.02;32.41;95844.69;4957057;28;20039;-82